createdAt,value
2019-06-27T00:00:09.181Z,64.71
2019-06-27T00:01:09.205Z,63.81
2019-06-27T00:02:09.158Z,64.71
2019-06-27T00:03:09.150Z,64.01
2019-06-27T00:04:09.136Z,64.01
2019-06-27T00:05:09.126Z,63.91
2019-06-27T00:06:09.115Z,64.21
2019-06-27T00:07:09.133Z,64.41
2019-06-27T00:08:09.091Z,64.31
2019-06-27T00:09:09.078Z,64.31
2019-06-27T00:10:09.068Z,64.64
2019-06-27T00:11:09.059Z,64.51
2019-06-27T00:12:09.078Z,64.11
2019-06-27T00:13:09.041Z,64.61
2019-06-27T00:14:09.023Z,64.61
2019-06-27T00:15:09.015Z,64.71
2019-06-27T00:16:09.004Z,63.94
2019-06-27T00:17:09.022Z,64.04
2019-06-27T00:18:08.978Z,63.94
2019-06-27T00:19:08.971Z,64.34
2019-06-27T00:20:08.957Z,64.31
2019-06-27T00:21:08.948Z,64.41
2019-06-27T00:22:08.970Z,64.24
2019-06-27T00:23:08.925Z,64.31
2019-06-27T00:24:08.913Z,64.34
2019-06-27T00:25:08.902Z,64.54
2019-06-27T00:26:08.892Z,64.44
2019-06-27T00:27:08.910Z,64.74
2019-06-27T00:28:08.869Z,65.23
2019-06-27T00:29:08.855Z,65.44
2019-06-27T00:30:08.846Z,65.23
2019-06-27T00:31:08.833Z,65.77
2019-06-27T00:32:08.855Z,65.77
2019-06-27T00:33:08.811Z,65.87
2019-06-27T00:34:08.801Z,65.67
2019-06-27T00:35:08.790Z,66.06
2019-06-27T00:36:08.788Z,66.47
2019-06-27T00:37:08.802Z,66.06
2019-06-27T00:38:08.760Z,66.36
2019-06-27T00:39:08.744Z,66.47
2019-06-27T00:40:08.737Z,66.17
2019-06-27T00:41:08.721Z,66.56
2019-06-27T00:42:08.759Z,66.77
2019-06-27T00:43:08.699Z,66.47
2019-06-27T00:44:08.689Z,66.86
2019-06-27T00:45:08.677Z,66.96
2019-06-27T00:46:08.667Z,67.30
2019-06-27T00:47:08.690Z,67.46
2019-06-27T00:48:08.644Z,67.60
2019-06-27T00:49:08.633Z,67.60
2019-06-27T00:50:08.621Z,67.60
2019-06-27T00:51:08.608Z,67.60
2019-06-27T00:52:08.630Z,68.10
2019-06-27T00:53:08.587Z,67.80
2019-06-27T00:54:08.574Z,68.10
2019-06-27T00:55:08.564Z,68.10
2019-06-27T00:56:08.554Z,68.29
2019-06-27T00:57:13.973Z,68.29
2019-06-27T00:58:09.530Z,68.40
2019-06-27T00:59:08.518Z,68.33
2019-06-27T01:00:08.506Z,68.73
2019-06-27T01:01:08.501Z,68.63
2019-06-27T01:02:08.491Z,68.63
2019-06-27T01:03:08.509Z,68.63
2019-06-27T01:04:08.464Z,68.73
2019-06-27T01:05:08.450Z,68.73
2019-06-27T01:06:08.441Z,68.82
2019-06-27T01:07:08.431Z,68.86
2019-06-27T01:08:08.453Z,69.16
2019-06-27T01:09:08.405Z,69.23
2019-06-27T01:10:08.396Z,69.26
2019-06-27T01:11:08.387Z,69.16
2019-06-27T01:12:08.375Z,69.36
2019-06-27T01:13:08.396Z,69.26
2019-06-27T01:14:08.350Z,69.26
2019-06-27T01:15:08.338Z,69.16
2019-06-27T01:16:08.327Z,69.26
2019-06-27T01:17:08.315Z,69.46
2019-06-27T01:18:08.335Z,69.56
2019-06-27T01:19:08.297Z,69.56
2019-06-27T01:20:08.283Z,69.26
2019-06-27T01:21:08.274Z,69.56
2019-06-27T01:22:08.259Z,69.36
2019-06-27T01:23:08.283Z,69.66
2019-06-27T01:24:08.238Z,69.56
2019-06-27T01:25:08.230Z,70.16
2019-06-27T01:26:08.215Z,69.69
2019-06-27T01:27:08.204Z,69.89
2019-06-27T01:28:08.223Z,70.49
2019-06-27T01:29:08.183Z,70.09
2019-06-27T01:30:08.171Z,70.39
2019-06-27T01:31:08.163Z,69.99
2019-06-27T01:32:08.151Z,70.29
2019-06-27T01:33:08.170Z,70.39
2019-06-27T01:34:08.129Z,70.19
2019-06-27T01:35:08.113Z,70.23
2019-06-27T01:36:08.102Z,70.03
2019-06-27T01:37:08.093Z,70.12
2019-06-27T01:38:08.115Z,69.93
2019-06-27T01:39:08.072Z,69.23
2019-06-27T01:40:08.059Z,69.32
2019-06-27T01:41:08.050Z,69.53
2019-06-27T01:42:08.034Z,69.32
2019-06-27T01:43:08.057Z,69.23
2019-06-27T01:44:08.011Z,68.76
2019-06-27T01:45:08.001Z,68.66
2019-06-27T01:46:07.991Z,68.82
2019-06-27T01:47:07.981Z,68.76
2019-06-27T01:48:08.003Z,68.52
2019-06-27T01:49:07.958Z,68.66
2019-06-27T01:50:07.947Z,68.55
2019-06-27T01:51:07.935Z,68.46
2019-06-27T01:52:07.922Z,68.36
2019-06-27T01:53:07.943Z,68.05
2019-06-27T01:54:07.901Z,68.36
2019-06-27T01:55:07.890Z,68.46
2019-06-27T01:56:07.880Z,68.46
2019-06-27T01:57:07.872Z,68.46
2019-06-27T01:58:07.890Z,67.96
2019-06-27T01:59:07.854Z,68.05
2019-06-27T02:00:07.835Z,68.26
2019-06-27T02:01:07.823Z,68.16
2019-06-27T02:02:07.811Z,68.26
2019-06-27T02:03:07.802Z,68.36
2019-06-27T02:04:07.845Z,68.16
2019-06-27T02:05:07.785Z,68.66
2019-06-27T02:06:07.769Z,68.86
2019-06-27T02:07:07.772Z,68.86
2019-06-27T02:08:07.748Z,69.06
2019-06-27T02:09:07.767Z,68.76
2019-06-27T02:10:07.726Z,69.19
2019-06-27T02:11:07.712Z,69.19
2019-06-27T02:12:07.704Z,69.09
2019-06-27T02:13:07.697Z,69.19
2019-06-27T02:14:07.730Z,69.29
2019-06-27T02:15:07.670Z,69.39
2019-06-27T02:16:07.684Z,69.59
2019-06-27T02:17:07.644Z,69.89
2019-06-27T02:18:07.633Z,69.69
2019-06-27T02:19:07.656Z,70.09
2019-06-27T02:20:07.611Z,70.39
2019-06-27T02:21:07.599Z,70.89
2019-06-27T02:22:07.590Z,71.09
2019-06-27T02:23:07.577Z,71.23
2019-06-27T02:24:07.608Z,71.93
2019-06-27T02:25:07.561Z,71.43
2019-06-27T02:26:07.545Z,71.73
2019-06-27T02:27:07.531Z,72.33
2019-06-27T02:28:07.522Z,72.33
2019-06-27T02:29:07.542Z,73.03
2019-06-27T02:30:07.499Z,72.63
2019-06-27T02:31:07.488Z,72.27
2019-06-27T02:32:07.476Z,72.33
2019-06-27T02:33:07.478Z,72.56
2019-06-27T02:34:07.578Z,72.13
2019-06-27T02:35:07.444Z,73.27
2019-06-27T02:36:07.433Z,73.07
2019-06-27T02:37:07.426Z,73.16
2019-06-27T02:38:07.410Z,73.27
2019-06-27T02:39:07.431Z,73.36
2019-06-27T02:40:07.388Z,73.77
2019-06-27T02:41:07.376Z,73.86
2019-06-27T02:42:07.366Z,74.07
2019-06-27T02:43:07.357Z,73.77
2019-06-27T02:44:07.385Z,73.67
2019-06-27T02:45:07.336Z,73.86
2019-06-27T02:46:07.320Z,73.57
2019-06-27T02:47:07.319Z,73.86
2019-06-27T02:48:07.386Z,73.67
2019-06-27T02:49:07.319Z,74.07
2019-06-27T02:50:07.275Z,74.10
2019-06-27T02:51:07.268Z,74.67
2019-06-27T02:52:07.255Z,74.01
2019-06-27T02:53:07.252Z,75.10
2019-06-27T02:54:07.234Z,75.21
2019-06-27T02:55:07.256Z,74.80
2019-06-27T02:56:07.214Z,75.21
2019-06-27T02:57:07.201Z,75.01
2019-06-27T02:58:27.591Z,75.10
2019-06-27T02:59:08.175Z,75.10
2019-06-27T03:00:07.207Z,75.31
2019-06-27T03:01:07.153Z,74.10
2019-06-27T03:02:07.142Z,74.01
2019-06-27T03:03:07.127Z,74.44
2019-06-27T03:04:07.118Z,74.60
2019-06-27T03:05:07.154Z,74.64
2019-06-27T03:06:07.096Z,75.14
2019-06-27T03:07:07.084Z,75.14
2019-06-27T03:08:07.074Z,75.14
2019-06-27T03:09:07.063Z,74.94
2019-06-27T03:10:07.087Z,75.14
2019-06-27T03:11:07.046Z,74.94
2019-06-27T03:12:07.029Z,74.94
2019-06-27T03:13:07.019Z,74.74
2019-06-27T03:14:07.015Z,74.44
2019-06-27T03:15:07.026Z,73.94
2019-06-27T03:16:06.984Z,74.14
2019-06-27T03:17:06.972Z,74.34
2019-06-27T03:18:06.962Z,74.04
2019-06-27T03:19:06.951Z,74.34
2019-06-27T03:20:06.971Z,73.97
2019-06-27T03:21:06.927Z,73.77
2019-06-27T03:22:06.928Z,73.37
2019-06-27T03:23:06.903Z,73.87
2019-06-27T03:24:06.894Z,73.37
2019-06-27T03:25:06.914Z,73.67
2019-06-27T03:26:06.887Z,73.77
2019-06-27T03:27:06.867Z,73.57
2019-06-27T03:28:06.847Z,73.27
2019-06-27T03:29:06.841Z,73.57
2019-06-27T03:30:06.864Z,73.00
2019-06-27T03:31:06.849Z,73.37
2019-06-27T03:32:06.802Z,73.47
2019-06-27T03:33:06.794Z,73.61
2019-06-27T03:34:06.795Z,73.37
2019-06-27T03:35:06.802Z,73.30
2019-06-27T03:36:06.762Z,73.57
2019-06-27T03:37:06.748Z,73.57
2019-06-27T03:38:06.740Z,73.47
2019-06-27T03:39:06.729Z,73.17
2019-06-27T03:40:06.753Z,73.97
2019-06-27T03:41:06.755Z,73.57
2019-06-27T03:42:06.691Z,73.50
2019-06-27T03:43:06.677Z,73.91
2019-06-27T03:44:06.677Z,73.81
2019-06-27T03:45:06.690Z,74.11
2019-06-27T03:46:06.665Z,74.11
2019-06-27T03:47:06.633Z,73.91
2019-06-27T03:48:06.634Z,74.24
2019-06-27T03:49:06.610Z,73.84
2019-06-27T03:50:06.672Z,73.64
2019-06-27T03:51:06.588Z,73.84
2019-06-27T03:52:06.581Z,73.74
2019-06-27T03:53:06.569Z,74.01
2019-06-27T03:54:06.560Z,73.74
2019-06-27T03:55:06.583Z,73.74
2019-06-27T03:56:06.535Z,73.64
2019-06-27T03:57:06.529Z,73.64
2019-06-27T03:58:06.512Z,74.24
2019-06-27T03:59:13.002Z,73.74
2019-06-27T04:00:07.519Z,73.74
2019-06-27T04:01:06.487Z,73.84
2019-06-27T04:02:06.472Z,73.84
2019-06-27T04:03:06.455Z,73.84
2019-06-27T04:04:06.444Z,73.74
2019-06-27T04:05:06.432Z,73.64
2019-06-27T04:06:06.452Z,73.94
2019-06-27T04:07:06.411Z,73.64
2019-06-27T04:08:06.403Z,73.84
2019-06-27T04:09:06.388Z,73.94
2019-06-27T04:10:06.384Z,73.94
2019-06-27T04:11:06.394Z,74.04
2019-06-27T04:12:06.363Z,74.24
2019-06-27T04:13:06.345Z,74.15
2019-06-27T04:14:06.330Z,74.04
2019-06-27T04:15:06.339Z,74.24
2019-06-27T04:16:06.352Z,74.55
2019-06-27T04:17:06.295Z,74.24
2019-06-27T04:18:06.288Z,74.24
2019-06-27T04:19:06.275Z,74.24
2019-06-27T04:20:06.273Z,73.84
2019-06-27T04:21:06.284Z,74.35
2019-06-27T04:22:06.247Z,73.74
2019-06-27T04:23:06.233Z,74.24
2019-06-27T04:24:06.224Z,74.15
2019-06-27T04:25:06.210Z,74.35
2019-06-27T04:26:06.227Z,74.35
2019-06-27T04:27:06.186Z,74.15
2019-06-27T04:28:06.182Z,74.65
2019-06-27T04:29:06.242Z,74.95
2019-06-27T04:30:06.185Z,74.44
2019-06-27T04:31:06.172Z,74.35
2019-06-27T04:32:06.129Z,74.74
2019-06-27T04:33:06.116Z,75.15
2019-06-27T04:34:06.101Z,75.45
2019-06-27T04:35:06.101Z,75.85
2019-06-27T04:36:06.117Z,75.55
2019-06-27T04:37:06.068Z,75.85
2019-06-27T04:38:06.067Z,75.75
2019-06-27T04:39:06.052Z,75.75
2019-06-27T04:40:06.037Z,75.65
2019-06-27T04:41:06.069Z,75.79
2019-06-27T04:42:06.019Z,75.38
2019-06-27T04:43:06.511Z,75.79
2019-06-27T04:44:06.072Z,75.65
2019-06-27T04:45:05.987Z,75.55
2019-06-27T04:46:06.005Z,76.05
2019-06-27T04:47:05.958Z,75.75
2019-06-27T04:48:05.961Z,75.65
2019-06-27T04:49:05.940Z,75.55
2019-06-27T04:50:05.922Z,75.85
2019-06-27T04:51:05.943Z,75.55
2019-06-27T04:52:05.910Z,75.65
2019-06-27T04:53:05.902Z,75.65
2019-06-27T04:54:05.878Z,75.15
2019-06-27T04:55:05.886Z,75.45
2019-06-27T04:56:05.897Z,75.15
2019-06-27T04:57:05.846Z,75.25
2019-06-27T04:58:05.833Z,75.35
2019-06-27T04:59:05.824Z,75.05
2019-06-27T05:00:05.811Z,75.29
2019-06-27T05:01:05.833Z,75.25
2019-06-27T05:02:05.787Z,74.55
2019-06-27T05:03:05.775Z,73.94
2019-06-27T05:04:05.766Z,73.64
2019-06-27T05:05:05.752Z,74.04
2019-06-27T05:06:05.785Z,73.74
2019-06-27T05:07:05.730Z,73.24
2019-06-27T05:08:05.729Z,73.34
2019-06-27T05:09:05.710Z,73.44
2019-06-27T05:10:05.697Z,73.44
2019-06-27T05:11:05.738Z,73.54
2019-06-27T05:12:05.728Z,73.04
2019-06-27T05:13:05.665Z,73.24
2019-06-27T05:14:05.651Z,73.74
2019-06-27T05:15:05.647Z,73.94
2019-06-27T05:16:05.634Z,73.84
2019-06-27T05:17:05.658Z,73.84
2019-06-27T05:18:05.606Z,73.94
2019-06-27T05:19:05.597Z,73.94
2019-06-27T05:20:05.588Z,73.58
2019-06-27T05:21:05.575Z,73.54
2019-06-27T05:22:05.678Z,73.84
2019-06-27T05:23:05.551Z,73.64
2019-06-27T05:24:05.542Z,74.04
2019-06-27T05:25:05.530Z,73.74
2019-06-27T05:26:05.524Z,74.04
2019-06-27T05:27:05.548Z,73.64
2019-06-27T05:28:05.507Z,73.84
2019-06-27T05:29:05.485Z,73.94
2019-06-27T05:30:10.000Z,73.94
2019-06-27T05:31:06.465Z,74.18
2019-06-27T05:32:05.486Z,74.15
2019-06-27T05:33:05.464Z,74.24
2019-06-27T05:34:05.427Z,74.85
2019-06-27T05:35:05.416Z,75.25
2019-06-27T05:36:05.427Z,74.65
2019-06-27T05:37:05.422Z,74.04
2019-06-27T05:38:05.382Z,74.35
2019-06-27T05:39:05.370Z,74.24
2019-06-27T05:40:05.358Z,74.15
2019-06-27T05:41:05.348Z,74.44
2019-06-27T05:42:05.374Z,74.85
2019-06-27T05:43:05.335Z,74.15
2019-06-27T05:44:05.311Z,73.94
2019-06-27T05:45:05.305Z,73.84
2019-06-27T05:46:05.299Z,73.84
2019-06-27T05:47:05.311Z,73.94
2019-06-27T05:48:05.479Z,73.44
2019-06-27T05:49:05.256Z,73.34
2019-06-27T05:50:05.247Z,72.94
2019-06-27T05:51:05.242Z,72.94
2019-06-27T05:52:05.257Z,73.44
2019-06-27T05:53:05.213Z,72.84
2019-06-27T05:54:05.213Z,73.04
2019-06-27T05:55:05.188Z,72.44
2019-06-27T05:56:05.175Z,73.04
2019-06-27T05:57:05.195Z,73.34
2019-06-27T05:58:05.160Z,73.24
2019-06-27T05:59:05.143Z,73.14
2019-06-27T06:00:05.133Z,72.40
2019-06-27T06:01:05.121Z,73.44
2019-06-27T06:02:05.143Z,73.30
2019-06-27T06:03:05.098Z,73.14
2019-06-27T06:04:05.087Z,73.14
2019-06-27T06:05:05.082Z,72.80
2019-06-27T06:06:05.065Z,73.50
2019-06-27T06:07:05.087Z,73.30
2019-06-27T06:08:05.055Z,72.60
2019-06-27T06:09:05.037Z,73.00
2019-06-27T06:10:05.017Z,72.40
2019-06-27T06:11:05.017Z,72.50
2019-06-27T06:12:05.031Z,73.10
2019-06-27T06:13:04.982Z,73.00
2019-06-27T06:14:05.070Z,73.10
2019-06-27T06:15:04.962Z,73.00
2019-06-27T06:16:04.949Z,72.64
2019-06-27T06:17:04.974Z,72.90
2019-06-27T06:18:04.934Z,72.90
2019-06-27T06:19:04.916Z,72.71
2019-06-27T06:20:04.908Z,72.40
2019-06-27T06:21:04.904Z,72.71
2019-06-27T06:22:04.885Z,72.67
2019-06-27T06:23:04.905Z,72.47
2019-06-27T06:24:04.858Z,71.86
2019-06-27T06:25:04.851Z,71.77
2019-06-27T06:26:04.870Z,71.77
2019-06-27T06:27:04.830Z,72.56
2019-06-27T06:28:04.847Z,72.37
2019-06-27T06:29:04.802Z,72.17
2019-06-27T06:30:04.800Z,71.86
2019-06-27T06:31:04.789Z,71.86
2019-06-27T06:32:04.813Z,72.56
2019-06-27T06:33:04.797Z,72.17
2019-06-27T06:34:04.755Z,72.37
2019-06-27T06:35:04.741Z,71.86
2019-06-27T06:36:04.733Z,72.37
2019-06-27T06:37:07.922Z,72.17
2019-06-27T06:38:04.741Z,71.80
2019-06-27T06:39:04.693Z,72.50
2019-06-27T06:40:04.682Z,72.71
2019-06-27T06:41:04.667Z,72.90
2019-06-27T06:42:04.659Z,72.71
2019-06-27T06:43:04.681Z,72.10
2019-06-27T06:44:04.638Z,72.60
2019-06-27T06:45:04.627Z,72.30
2019-06-27T06:46:04.628Z,72.71
2019-06-27T06:47:04.599Z,72.50
2019-06-27T06:48:04.623Z,72.90
2019-06-27T06:49:04.579Z,72.20
2019-06-27T06:50:04.567Z,72.71
2019-06-27T06:51:04.594Z,72.30
2019-06-27T06:52:04.552Z,72.97
2019-06-27T06:53:04.567Z,72.27
2019-06-27T06:54:04.529Z,72.27
2019-06-27T06:55:04.508Z,72.17
2019-06-27T06:56:04.517Z,71.90
2019-06-27T06:57:04.485Z,72.20
2019-06-27T06:58:04.514Z,72.67
2019-06-27T06:59:04.465Z,72.37
2019-06-27T07:00:04.453Z,71.90
2019-06-27T07:01:04.445Z,72.06
2019-06-27T07:02:04.432Z,71.20
2019-06-27T07:03:04.468Z,71.26
2019-06-27T07:04:04.431Z,71.36
2019-06-27T07:05:04.401Z,71.40
2019-06-27T07:06:04.383Z,71.26
2019-06-27T07:07:04.387Z,71.26
2019-06-27T07:08:04.399Z,71.47
2019-06-27T07:09:04.362Z,71.77
2019-06-27T07:10:04.344Z,71.26
2019-06-27T07:11:04.340Z,71.06
2019-06-27T07:12:04.319Z,70.76
2019-06-27T07:13:04.343Z,71.26
2019-06-27T07:14:04.295Z,71.66
2019-06-27T07:15:04.282Z,70.76
2019-06-27T07:16:04.274Z,71.33
2019-06-27T07:17:04.259Z,70.53
2019-06-27T07:18:04.281Z,70.83
2019-06-27T07:19:04.242Z,70.23
2019-06-27T07:20:04.227Z,69.42
2019-06-27T07:21:04.215Z,69.12
2019-06-27T07:22:04.209Z,69.42
2019-06-27T07:23:04.243Z,69.62
2019-06-27T07:24:04.186Z,70.43
2019-06-27T07:25:04.170Z,70.43
2019-06-27T07:26:04.160Z,69.82
2019-06-27T07:27:04.150Z,69.73
2019-06-27T07:28:04.138Z,69.53
2019-06-27T07:29:04.199Z,69.19
2019-06-27T07:30:04.121Z,68.69
2019-06-27T07:31:16.897Z,69.19
2019-06-27T07:32:05.090Z,69.09
2019-06-27T07:33:04.084Z,67.79
2019-06-27T07:34:04.102Z,67.85
2019-06-27T07:35:04.058Z,68.35
2019-06-27T07:36:04.051Z,67.96
2019-06-27T07:37:04.045Z,67.45
2019-06-27T07:38:04.035Z,67.15
2019-06-27T07:39:04.155Z,67.35
2019-06-27T07:40:04.016Z,67.15
2019-06-27T07:41:03.997Z,67.38
2019-06-27T07:42:03.986Z,67.15
2019-06-27T07:43:04.315Z,67.76
2019-06-27T07:44:03.988Z,67.55
2019-06-27T07:45:03.944Z,67.25
2019-06-27T07:46:03.951Z,67.15
2019-06-27T07:47:03.921Z,66.55
2019-06-27T07:48:03.914Z,67.25
2019-06-27T07:49:03.930Z,67.25
2019-06-27T07:50:03.889Z,67.35
2019-06-27T07:51:03.891Z,66.35
2019-06-27T07:52:03.864Z,66.45
2019-06-27T07:53:03.860Z,66.25
2019-06-27T07:54:03.843Z,66.45
2019-06-27T07:55:03.870Z,67.35
2019-06-27T07:56:03.822Z,66.85
2019-06-27T07:57:03.818Z,66.65
2019-06-27T07:58:03.801Z,66.25
2019-06-27T07:59:03.793Z,66.15
2019-06-27T08:00:03.811Z,65.75
2019-06-27T08:01:03.777Z,66.65
2019-06-27T08:02:03.765Z,66.05
2019-06-27T08:03:03.742Z,66.75
2019-06-27T08:04:03.732Z,66.35
2019-06-27T08:05:03.755Z,66.45
2019-06-27T08:06:03.715Z,66.05
2019-06-27T08:07:03.703Z,65.75
2019-06-27T08:08:03.683Z,65.85
2019-06-27T08:09:03.679Z,65.25
2019-06-27T08:10:03.704Z,65.95
2019-06-27T08:11:03.654Z,64.75
2019-06-27T08:12:03.642Z,64.65
2019-06-27T08:13:03.633Z,64.72
2019-06-27T08:14:03.621Z,65.12
2019-06-27T08:15:03.662Z,64.54
2019-06-27T08:16:03.599Z,64.84
2019-06-27T08:17:03.590Z,65.05
2019-06-27T08:18:03.577Z,64.42
2019-06-27T08:19:03.569Z,64.62
2019-06-27T08:20:03.621Z,65.01
2019-06-27T08:21:03.541Z,63.01
2019-06-27T08:22:03.531Z,63.11
2019-06-27T08:23:03.593Z,62.71
2019-06-27T08:24:03.550Z,63.81
2019-06-27T08:25:03.502Z,62.81
2019-06-27T08:26:03.525Z,62.61
2019-06-27T08:27:03.474Z,62.81
2019-06-27T08:28:03.465Z,63.51
2019-06-27T08:29:03.494Z,63.61
2019-06-27T08:30:03.445Z,63.61
2019-06-27T08:31:03.462Z,63.71
2019-06-27T08:32:03.416Z,63.71
2019-06-27T08:33:03.405Z,64.18
2019-06-27T08:34:03.399Z,62.88
2019-06-27T08:35:03.383Z,63.68
2019-06-27T08:36:03.402Z,63.65
2019-06-27T08:37:03.361Z,62.95
2019-06-27T08:38:03.360Z,62.35
2019-06-27T08:39:03.367Z,62.65
2019-06-27T08:40:03.331Z,61.75
2019-06-27T08:41:03.373Z,61.95
2019-06-27T08:42:03.311Z,62.05
2019-06-27T08:43:03.300Z,62.12
2019-06-27T08:44:03.281Z,62.52
2019-06-27T08:45:03.283Z,62.12
2019-06-27T08:46:03.292Z,61.62
2019-06-27T08:47:03.247Z,61.52
2019-06-27T08:48:03.250Z,61.72
2019-06-27T08:49:03.232Z,61.62
2019-06-27T08:50:03.211Z,61.42
2019-06-27T08:51:03.238Z,60.42
2019-06-27T08:52:03.215Z,60.62
2019-06-27T08:53:03.184Z,61.42
2019-06-27T08:54:03.173Z,61.82
2019-06-27T08:55:03.160Z,62.12
2019-06-27T08:56:03.184Z,61.79
2019-06-27T08:57:03.151Z,60.49
2019-06-27T08:58:03.124Z,60.39
2019-06-27T08:59:03.695Z,60.39
2019-06-27T09:00:03.127Z,59.99
2019-06-27T09:01:03.123Z,59.69
2019-06-27T09:02:08.601Z,58.97
2019-06-27T09:03:04.072Z,58.29
2019-06-27T09:04:03.057Z,59.09
2019-06-27T09:05:03.058Z,59.36
2019-06-27T09:06:03.048Z,59.17
2019-06-27T09:07:03.056Z,59.47
2019-06-27T09:08:03.011Z,60.57
2019-06-27T09:09:03.034Z,58.86
2019-06-27T09:10:02.999Z,58.67
2019-06-27T09:11:03.061Z,58.37
2019-06-27T09:12:03.014Z,57.76
2019-06-27T09:13:03.079Z,57.87
2019-06-27T09:14:02.962Z,57.87
2019-06-27T09:15:02.934Z,58.06
2019-06-27T09:16:02.924Z,58.04
2019-06-27T09:17:02.948Z,58.24
2019-06-27T09:18:02.900Z,57.64
2019-06-27T09:19:02.890Z,57.93
2019-06-27T09:20:02.881Z,57.74
2019-06-27T09:21:02.872Z,57.93
2019-06-27T09:22:02.889Z,57.24
2019-06-27T09:23:02.842Z,57.34
2019-06-27T09:24:02.837Z,56.71
2019-06-27T09:25:02.832Z,56.81
2019-06-27T09:26:02.810Z,57.01
2019-06-27T09:27:02.834Z,57.68
2019-06-27T09:28:02.800Z,55.49
2019-06-27T09:29:02.805Z,54.49
2019-06-27T09:30:02.766Z,55.39
2019-06-27T09:31:02.762Z,54.49
2019-06-27T09:32:02.788Z,54.99
2019-06-27T09:33:02.742Z,53.59
2019-06-27T09:34:02.720Z,54.39
2019-06-27T09:35:02.708Z,54.59
2019-06-27T09:36:02.702Z,53.12
2019-06-27T09:37:02.719Z,53.89
2019-06-27T09:38:02.712Z,53.69
2019-06-27T09:39:02.665Z,52.99
2019-06-27T09:40:02.664Z,53.29
2019-06-27T09:41:02.651Z,53.29
2019-06-27T09:42:02.660Z,53.47
2019-06-27T09:43:02.639Z,52.67
2019-06-27T09:44:02.608Z,53.66
2019-06-27T09:45:02.597Z,52.76
2019-06-27T09:46:02.585Z,52.37
2019-06-27T09:47:02.613Z,52.07
2019-06-27T09:48:02.562Z,51.35
2019-06-27T09:49:02.559Z,51.42
2019-06-27T09:50:02.541Z,52.42
2019-06-27T09:51:02.530Z,50.82
2019-06-27T09:52:02.551Z,51.32
2019-06-27T09:53:02.517Z,50.82
2019-06-27T09:54:02.535Z,51.12
2019-06-27T09:55:02.480Z,51.12
2019-06-27T09:56:02.472Z,50.73
2019-06-27T09:57:02.489Z,51.32
2019-06-27T09:58:02.697Z,51.42
2019-06-27T09:59:02.443Z,51.03
2019-06-27T10:00:02.482Z,51.03
2019-06-27T10:01:05.748Z,51.22
2019-06-27T10:02:02.403Z,51.12
2019-06-27T10:03:02.423Z,51.40
2019-06-27T10:04:02.382Z,49.21
2019-06-27T10:05:02.372Z,49.80
2019-06-27T10:06:02.365Z,50.10
2019-06-27T10:07:02.408Z,50.27
2019-06-27T10:08:02.365Z,50.27
2019-06-27T10:09:02.356Z,49.38
2019-06-27T10:10:02.314Z,49.85
2019-06-27T10:11:02.311Z,48.46
2019-06-27T10:12:02.342Z,47.86
2019-06-27T10:13:02.310Z,48.16
2019-06-27T10:14:02.269Z,47.96
2019-06-27T10:15:02.284Z,48.04
2019-06-27T10:16:02.250Z,48.26
2019-06-27T10:17:02.252Z,48.14
2019-06-27T10:18:02.259Z,48.64
2019-06-27T10:19:02.221Z,47.25
2019-06-27T10:20:02.202Z,47.64
2019-06-27T10:21:02.190Z,48.02
2019-06-27T10:22:02.177Z,48.32
2019-06-27T10:23:02.202Z,48.22
2019-06-27T10:24:02.161Z,47.13
2019-06-27T10:25:02.256Z,47.72
2019-06-27T10:26:02.136Z,47.02
2019-06-27T10:27:02.129Z,46.20
2019-06-27T10:28:02.150Z,46.53
2019-06-27T10:29:02.287Z,46.31
2019-06-27T10:30:02.264Z,46.80
2019-06-27T10:31:02.079Z,45.61
2019-06-27T10:32:02.076Z,45.81
2019-06-27T10:33:02.095Z,46.01
2019-06-27T10:34:02.044Z,46.19
2019-06-27T10:35:02.041Z,46.20
2019-06-27T10:36:02.035Z,46.50
2019-06-27T10:37:02.111Z,46.60
2019-06-27T10:38:02.030Z,45.81
2019-06-27T10:39:02.008Z,46.41
2019-06-27T10:40:02.000Z,46.41
2019-06-27T10:41:01.972Z,46.68
2019-06-27T10:42:01.957Z,46.58
2019-06-27T10:43:01.977Z,45.94
2019-06-27T10:44:01.935Z,46.34
2019-06-27T10:45:02.129Z,45.52
2019-06-27T10:46:01.913Z,45.60
2019-06-27T10:47:01.917Z,44.41
2019-06-27T10:48:01.923Z,44.60
2019-06-27T10:49:01.885Z,43.49
2019-06-27T10:50:01.873Z,43.79
2019-06-27T10:51:01.863Z,42.71
2019-06-27T10:52:01.857Z,41.83
2019-06-27T10:53:01.865Z,42.63
2019-06-27T10:54:01.897Z,43.02
2019-06-27T10:55:01.817Z,43.42
2019-06-27T10:56:01.801Z,43.42
2019-06-27T10:57:01.793Z,43.60
2019-06-27T10:58:01.820Z,43.49
2019-06-27T10:59:01.809Z,43.67
2019-06-27T11:00:02.120Z,42.29
2019-06-27T11:01:01.745Z,42.38
2019-06-27T11:02:01.738Z,42.38
2019-06-27T11:03:15.097Z,41.77
2019-06-27T11:04:02.712Z,41.79
2019-06-27T11:05:01.752Z,41.39
2019-06-27T11:06:01.760Z,41.67
2019-06-27T11:07:01.681Z,40.29
2019-06-27T11:08:01.699Z,41.30
2019-06-27T11:09:01.657Z,41.18
2019-06-27T11:10:01.650Z,41.38
2019-06-27T11:11:01.765Z,40.48
2019-06-27T11:12:01.623Z,40.07
2019-06-27T11:13:01.723Z,39.48
2019-06-27T11:14:01.632Z,40.17
2019-06-27T11:15:01.611Z,39.77
2019-06-27T11:16:01.766Z,39.87
2019-06-27T11:17:01.679Z,39.77
2019-06-27T11:18:01.556Z,39.36
2019-06-27T11:19:01.579Z,39.16
2019-06-27T11:20:01.545Z,39.64
2019-06-27T11:21:01.524Z,39.24
2019-06-27T11:22:01.511Z,39.12
2019-06-27T11:23:01.502Z,39.40
2019-06-27T11:24:01.532Z,39.30
2019-06-27T11:25:01.838Z,38.12
2019-06-27T11:26:01.478Z,38.04
2019-06-27T11:27:01.456Z,38.82
2019-06-27T11:28:01.446Z,39.22
2019-06-27T11:29:01.508Z,39.30
2019-06-27T11:30:01.565Z,39.38
2019-06-27T11:31:01.411Z,36.61
2019-06-27T11:32:01.414Z,36.63
2019-06-27T11:33:01.408Z,37.92
2019-06-27T11:34:01.414Z,37.92
2019-06-27T11:35:01.379Z,37.52
2019-06-27T11:36:01.361Z,37.90
2019-06-27T11:37:01.352Z,37.90
2019-06-27T11:38:01.363Z,37.90
2019-06-27T11:39:01.493Z,37.01
2019-06-27T11:40:01.321Z,37.19
2019-06-27T11:41:01.311Z,37.59
2019-06-27T11:42:01.297Z,35.71
2019-06-27T11:43:01.285Z,36.11
2019-06-27T11:44:01.283Z,34.82
2019-06-27T11:45:01.300Z,35.81
2019-06-27T11:46:01.275Z,36.22
2019-06-27T11:47:01.252Z,36.02
2019-06-27T11:48:01.231Z,36.82
2019-06-27T11:49:01.247Z,36.02
2019-06-27T11:50:01.209Z,36.42
2019-06-27T11:51:01.221Z,36.42
2019-06-27T11:52:01.194Z,36.82
2019-06-27T11:53:01.174Z,36.11
2019-06-27T11:54:01.162Z,36.21
2019-06-27T11:55:01.320Z,34.53
2019-06-27T11:56:01.154Z,34.53
2019-06-27T11:57:01.141Z,34.53
2019-06-27T11:58:01.118Z,34.63
2019-06-27T11:59:01.205Z,35.22
2019-06-27T12:00:01.133Z,33.72
2019-06-27T12:01:01.099Z,33.74
2019-06-27T12:02:01.078Z,33.92
2019-06-27T12:03:01.066Z,33.62
2019-06-27T12:04:01.058Z,33.91
2019-06-27T12:05:01.098Z,33.41
2019-06-27T12:06:01.058Z,33.82
2019-06-27T12:07:01.024Z,33.92
2019-06-27T12:08:01.010Z,33.23
2019-06-27T12:09:01.003Z,33.23
2019-06-27T12:10:01.057Z,33.72
2019-06-27T12:11:00.990Z,34.01
2019-06-27T12:12:00.966Z,33.33
2019-06-27T12:13:00.955Z,33.23
2019-06-27T12:14:00.977Z,34.12
2019-06-27T12:15:00.970Z,33.11
2019-06-27T12:16:00.925Z,33.70
2019-06-27T12:17:00.918Z,32.82
2019-06-27T12:18:00.913Z,32.93
2019-06-27T12:19:00.896Z,33.41
2019-06-27T12:20:00.923Z,33.33
2019-06-27T12:21:00.870Z,33.31
2019-06-27T12:22:00.893Z,33.80
2019-06-27T12:23:00.850Z,33.22
2019-06-27T12:24:00.843Z,32.23
2019-06-27T12:25:00.879Z,33.33
2019-06-27T12:26:00.818Z,33.42
2019-06-27T12:27:00.807Z,33.13
2019-06-27T12:28:00.824Z,32.73
2019-06-27T12:29:00.782Z,32.32
2019-06-27T12:30:00.807Z,33.61
2019-06-27T12:31:00.766Z,33.10
2019-06-27T12:32:00.755Z,32.11
2019-06-27T12:33:00.755Z,31.93
2019-06-27T12:34:06.889Z,31.62
2019-06-27T12:35:01.757Z,31.82
2019-06-27T12:36:00.729Z,31.63
2019-06-27T12:37:00.702Z,31.73
2019-06-27T12:38:00.735Z,31.92
2019-06-27T12:39:00.681Z,31.62
2019-06-27T12:40:00.709Z,31.90
2019-06-27T12:41:00.660Z,31.60
2019-06-27T12:42:00.655Z,30.91
2019-06-27T12:43:00.660Z,31.90
2019-06-27T12:44:00.632Z,31.01
2019-06-27T12:45:00.809Z,31.60
2019-06-27T12:46:00.636Z,30.62
2019-06-27T12:47:00.608Z,32.18
2019-06-27T12:48:06.559Z,29.82
2019-06-27T12:49:01.574Z,30.13
2019-06-27T12:50:02.578Z,30.72
2019-06-27T12:51:00.586Z,30.91
2019-06-27T12:52:00.543Z,31.11